createdAt,value
2019-02-27T00:00:52.395Z,58.34
2019-02-27T00:04:55.790Z,59.98
2019-02-27T00:09:00.580Z,58.56
2019-02-27T00:13:04.247Z,58.21
2019-02-27T00:17:08.325Z,59.50
2019-02-27T00:21:11.794Z,59.08
2019-02-27T00:25:15.190Z,59.26
2019-02-27T00:29:18.605Z,59.44
2019-02-27T00:33:25.060Z,59.14
2019-02-27T00:37:27.160Z,59.61
2019-02-27T00:41:30.683Z,59.36
2019-02-27T00:45:34.089Z,59.01
2019-02-27T00:49:37.491Z,58.54
2019-02-27T00:53:40.943Z,59.69
2019-02-27T00:57:44.408Z,59.89
2019-02-27T01:01:48.025Z,60.58
2019-02-27T01:05:51.534Z,61.05
2019-02-27T01:09:55.001Z,60.38
2019-02-27T01:13:58.354Z,60.06
2019-02-27T01:18:01.762Z,59.79
2019-02-27T01:22:05.584Z,59.92
2019-02-27T01:26:08.988Z,60.20
2019-02-27T01:30:14.870Z,59.60
2019-02-27T01:34:18.263Z,60.53
2019-02-27T01:38:21.566Z,59.64
2019-02-27T01:42:24.881Z,59.85
2019-02-27T01:46:28.449Z,60.13
2019-02-27T01:50:33.447Z,61.15
2019-02-27T01:54:36.843Z,59.66
2019-02-27T01:58:43.307Z,59.19
2019-02-27T02:02:45.298Z,58.99
2019-02-27T02:06:48.712Z,59.64
2019-02-27T02:10:53.927Z,60.13
2019-02-27T02:15:21.949Z,60.47
2019-02-27T02:19:54.017Z,60.48
2019-02-27T02:23:59.793Z,60.02
2019-02-27T02:28:15.510Z,59.32
2019-02-27T02:32:34.254Z,59.83
2019-02-27T02:36:40.966Z,59.72
2019-02-27T02:40:56.435Z,61.30
2019-02-27T02:45:33.118Z,61.20
2019-02-27T02:50:17.461Z,61.29
2019-02-27T02:54:37.437Z,61.10
2019-02-27T02:58:57.166Z,60.73
2019-02-27T03:03:04.332Z,60.78
2019-02-27T03:07:16.699Z,60.64
2019-02-27T03:11:29.127Z,60.59
2019-02-27T03:15:35.704Z,61.06
2019-02-27T03:19:44.950Z,61.10
2019-02-27T03:24:09.760Z,60.41
2019-02-27T03:28:28.441Z,60.46
2019-02-27T03:32:44.357Z,61.67
2019-02-27T03:37:17.843Z,62.01
2019-02-27T03:41:36.364Z,60.99
2019-02-27T03:45:45.712Z,61.43
2019-02-27T03:49:52.297Z,60.69
2019-02-27T03:54:20.930Z,60.40
2019-02-27T03:58:30.578Z,60.71
2019-02-27T04:02:53.262Z,61.12
2019-02-27T04:07:06.082Z,61.33
2019-02-27T04:11:09.526Z,61.43
2019-02-27T04:15:17.687Z,61.51
2019-02-27T04:19:18.157Z,61.89
2019-02-27T04:23:21.563Z,61.13
2019-02-27T04:27:24.969Z,61.05
2019-02-27T04:31:30.577Z,60.71
2019-02-27T04:35:34.311Z,60.20
2019-02-27T04:39:38.269Z,60.73
2019-02-27T04:43:42.187Z,61.37
2019-02-27T04:47:45.499Z,61.27
2019-02-27T04:51:50.606Z,61.45
2019-02-27T04:55:53.953Z,60.50
2019-02-27T04:59:57.269Z,61.39
2019-02-27T05:04:01.450Z,61.56
2019-02-27T05:08:05.507Z,61.78
2019-02-27T05:12:08.926Z,61.81
2019-02-27T05:16:14.265Z,61.09
2019-02-27T05:20:17.478Z,61.59
2019-02-27T05:24:20.887Z,61.42
2019-02-27T05:28:24.293Z,61.50
2019-02-27T05:32:28.294Z,61.78
2019-02-27T05:36:32.374Z,61.68
2019-02-27T05:40:35.873Z,61.25
2019-02-27T05:44:39.566Z,60.96
2019-02-27T05:48:42.976Z,60.80
2019-02-27T05:52:48.899Z,60.20
2019-02-27T05:56:51.539Z,61.09
2019-02-27T06:00:55.354Z,61.75
2019-02-27T06:04:59.057Z,61.17
2019-02-27T06:09:03.914Z,61.14
2019-02-27T06:13:07.318Z,61.54
2019-02-27T06:17:12.894Z,61.46
2019-02-27T06:21:16.606Z,61.30
2019-02-27T06:25:23.327Z,61.40
2019-02-27T06:29:25.055Z,60.55
2019-02-27T06:33:28.370Z,58.29
2019-02-27T06:37:31.764Z,55.54
2019-02-27T06:41:35.133Z,56.05
2019-02-27T06:45:38.819Z,53.06
2019-02-27T06:49:42.196Z,47.22
2019-02-27T06:53:46.084Z,42.28
2019-02-27T06:57:49.527Z,41.98
2019-02-27T07:01:52.894Z,42.21
2019-02-27T07:05:56.752Z,40.22
2019-02-27T07:10:00.281Z,41.51
2019-02-27T07:14:03.713Z,40.90
2019-02-27T07:18:07.186Z,43.18
2019-02-27T07:22:12.650Z,44.99
2019-02-27T07:26:15.995Z,42.25
2019-02-27T07:30:23.630Z,47.04
2019-02-27T07:34:26.552Z,46.88
2019-02-27T07:38:30.014Z,50.80
2019-02-27T07:42:33.376Z,53.05
2019-02-27T07:46:36.886Z,53.70
2019-02-27T07:50:40.699Z,52.83
2019-02-27T07:54:44.124Z,53.14
2019-02-27T07:58:47.516Z,50.13
2019-02-27T08:02:50.822Z,50.88
2019-02-27T08:06:54.241Z,48.29
2019-02-27T08:10:57.649Z,48.64
2019-02-27T08:15:00.974Z,48.36
2019-02-27T08:19:04.370Z,49.08
2019-02-27T08:23:07.778Z,47.04
2019-02-27T08:27:11.184Z,42.61
2019-02-27T08:31:14.594Z,43.29
2019-02-27T08:35:18.004Z,47.60
2019-02-27T08:39:21.417Z,47.94
2019-02-27T08:43:24.821Z,46.34
2019-02-27T08:47:28.227Z,45.64
2019-02-27T08:51:31.636Z,46.71
2019-02-27T08:55:38.997Z,47.48
2019-02-27T08:59:40.771Z,46.93
2019-02-27T09:03:44.219Z,43.23
2019-02-27T09:07:47.628Z,41.08
2019-02-27T09:11:51.044Z,39.69
2019-02-27T09:15:54.445Z,35.00
2019-02-27T09:19:57.854Z,31.03
2019-02-27T09:24:01.267Z,28.24
2019-02-27T09:28:08.786Z,26.95
2019-02-27T09:32:11.657Z,27.23
2019-02-27T09:36:14.981Z,26.50
2019-02-27T09:40:26.987Z,25.97
2019-02-27T09:44:30.392Z,25.00
2019-02-27T09:48:34.103Z,25.06
2019-02-27T09:52:37.619Z,26.06
2019-02-27T09:56:41.028Z,26.35
2019-02-27T10:00:46.447Z,25.94
2019-02-27T10:04:49.891Z,25.44
2019-02-27T10:08:53.256Z,25.08
2019-02-27T10:12:56.618Z,24.34
2019-02-27T10:17:00.020Z,23.93
2019-02-27T10:21:03.429Z,22.90
2019-02-27T10:25:08.619Z,21.71
2019-02-27T10:29:13.442Z,22.33
2019-02-27T10:33:18.156Z,22.59
2019-02-27T10:37:21.636Z,21.92
2019-02-27T10:41:25.699Z,22.36
2019-02-27T10:45:29.304Z,22.06
2019-02-27T10:49:32.720Z,21.48
2019-02-27T10:53:36.435Z,22.25
2019-02-27T10:57:39.785Z,22.33
2019-02-27T11:01:43.250Z,21.15
2019-02-27T11:05:46.663Z,21.22
2019-02-27T11:09:50.070Z,21.22
2019-02-27T11:13:55.431Z,21.99
2019-02-27T11:18:04.183Z,20.94
2019-02-27T11:22:03.671Z,22.20
2019-02-27T11:26:07.084Z,26.29
2019-02-27T11:30:16.738Z,26.29
2019-02-27T11:34:20.153Z,25.73
2019-02-27T11:38:24.784Z,25.28
2019-02-27T11:42:31.797Z,25.35
2019-02-27T11:46:35.147Z,24.92
2019-02-27T11:50:39.106Z,25.13
2019-02-27T11:54:43.280Z,28.00
2019-02-27T11:58:47.463Z,26.20
2019-02-27T12:02:50.872Z,25.36
2019-02-27T12:06:54.283Z,23.69
2019-02-27T12:10:57.690Z,23.81
2019-02-27T12:15:01.099Z,24.84
2019-02-27T12:19:06.377Z,24.00
2019-02-27T12:23:10.083Z,22.18
2019-02-27T12:27:25.688Z,22.99
2019-02-27T12:31:19.656Z,22.90
2019-02-27T12:35:25.828Z,24.82
2019-02-27T12:39:29.236Z,21.83
2019-02-27T12:43:32.642Z,23.19
2019-02-27T12:47:37.622Z,23.32
2019-02-27T12:51:41.198Z,24.68
2019-02-27T12:55:44.716Z,23.44
2019-02-27T12:59:48.123Z,22.77
2019-02-27T13:03:51.537Z,22.96
2019-02-27T13:07:54.939Z,23.70
2019-02-27T13:11:58.391Z,23.73
2019-02-27T13:16:01.759Z,23.32
2019-02-27T13:20:12.521Z,25.64
2019-02-27T13:24:16.067Z,25.50
2019-02-27T13:28:19.562Z,24.05
2019-02-27T13:32:26.556Z,24.83
2019-02-27T13:36:28.535Z,24.32
2019-02-27T13:40:35.143Z,25.89
2019-02-27T13:44:38.834Z,24.63
2019-02-27T13:48:42.445Z,25.00
2019-02-27T13:52:49.902Z,25.37
2019-02-27T13:56:52.019Z,28.13
2019-02-27T14:00:55.439Z,26.82
2019-02-27T14:05:00.622Z,27.52
2019-02-27T14:09:07.059Z,27.39
2019-02-27T14:13:10.786Z,26.94
2019-02-27T14:17:14.247Z,26.74
2019-02-27T14:21:17.609Z,26.78
2019-02-27T14:25:33.069Z,26.55
2019-02-27T14:29:35.380Z,27.93
2019-02-27T14:33:38.793Z,28.94
2019-02-27T14:37:42.201Z,28.11
2019-02-27T14:41:48.221Z,27.27
2019-02-27T14:45:50.964Z,28.25
2019-02-27T14:49:54.617Z,29.13
2019-02-27T14:53:58.907Z,30.59
2019-02-27T14:58:02.315Z,31.39
2019-02-27T15:02:05.726Z,30.11
2019-02-27T15:06:09.133Z,29.83
2019-02-27T15:10:17.707Z,31.76
2019-02-27T15:14:21.282Z,31.16
2019-02-27T15:18:24.788Z,32.32
2019-02-27T15:22:28.196Z,32.14
2019-02-27T15:26:31.709Z,30.49
2019-02-27T15:30:37.288Z,31.49
2019-02-27T15:34:45.923Z,30.53
2019-02-27T15:38:50.121Z,30.34
2019-02-27T15:42:53.447Z,31.19
2019-02-27T15:46:57.325Z,32.79
2019-02-27T15:51:04.013Z,32.64
2019-02-27T15:55:09.314Z,34.19
2019-02-27T15:59:12.831Z,34.83
2019-02-27T16:03:16.229Z,35.89
2019-02-27T16:07:19.631Z,36.27
2019-02-27T16:11:23.039Z,36.44
2019-02-27T16:15:26.663Z,37.75
2019-02-27T16:19:33.817Z,38.73
2019-02-27T16:23:39.225Z,40.72
2019-02-27T16:27:46.433Z,42.34
2019-02-27T16:31:50.550Z,42.03
2019-02-27T16:35:56.975Z,43.03
2019-02-27T16:40:00.627Z,43.45
2019-02-27T16:44:04.044Z,44.29
2019-02-27T16:48:07.442Z,44.53
2019-02-27T16:52:10.875Z,44.85
2019-02-27T16:56:14.258Z,46.72
2019-02-27T17:00:21.341Z,47.95
2019-02-27T17:04:24.864Z,49.75
2019-02-27T17:08:28.424Z,50.62
2019-02-27T17:12:31.720Z,50.75
2019-02-27T17:16:38.335Z,51.30
2019-02-27T17:20:46.083Z,51.33
2019-02-27T17:24:47.033Z,52.02
2019-02-27T17:28:51.641Z,51.45
2019-02-27T17:32:55.591Z,51.57
2019-02-27T17:36:59.101Z,52.17
2019-02-27T17:41:02.540Z,51.98
2019-02-27T17:45:10.027Z,52.58
2019-02-27T17:49:14.447Z,51.37
2019-02-27T17:53:20.480Z,51.90
2019-02-27T17:57:25.031Z,51.85
2019-02-27T18:01:28.367Z,52.20
2019-02-27T18:05:31.817Z,52.78
2019-02-27T18:09:35.202Z,51.49
2019-02-27T18:13:39.158Z,50.95
2019-02-27T18:17:42.742Z,50.01
2019-02-27T18:21:46.262Z,49.47
2019-02-27T18:25:49.663Z,49.05
2019-02-27T18:29:53.100Z,48.69
2019-02-27T18:33:56.504Z,47.94
2019-02-27T18:37:59.930Z,47.86
2019-02-27T18:42:04.447Z,47.72
2019-02-27T18:46:07.837Z,48.05
2019-02-27T18:50:13.003Z,48.42
2019-02-27T18:54:16.393Z,48.61
2019-02-27T18:58:20.958Z,48.61
2019-02-27T19:02:25.054Z,48.68
2019-02-27T19:06:28.463Z,48.50
2019-02-27T19:10:32.021Z,48.28
2019-02-27T19:14:36.723Z,48.35
2019-02-27T19:18:41.145Z,48.40
2019-02-27T19:22:45.273Z,48.36
2019-02-27T19:26:49.516Z,48.36
2019-02-27T19:30:53.031Z,48.44
2019-02-27T19:34:56.422Z,48.26
2019-02-27T19:38:59.806Z,47.78
2019-02-27T19:43:04.506Z,47.28
2019-02-27T19:47:07.988Z,46.79
2019-02-27T19:51:11.492Z,46.80
2019-02-27T19:55:15.004Z,47.37
2019-02-27T19:59:24.639Z,47.44
2019-02-27T20:03:23.979Z,47.65
2019-02-27T20:07:27.424Z,48.19
2019-02-27T20:11:30.796Z,49.11
2019-02-27T20:15:34.300Z,49.01
2019-02-27T20:19:37.710Z,49.08
2019-02-27T20:23:41.223Z,49.24
2019-02-27T20:27:44.735Z,49.25
2019-02-27T20:31:48.244Z,49.34
2019-02-27T20:35:52.401Z,49.19
2019-02-27T20:39:59.168Z,49.29
2019-02-27T20:44:03.493Z,49.30
2019-02-27T20:48:07.718Z,49.99
2019-02-27T20:52:14.524Z,50.47
2019-02-27T20:56:16.383Z,51.60
2019-02-27T21:00:20.740Z,52.57
2019-02-27T21:04:24.120Z,53.01
2019-02-27T21:08:27.635Z,52.72
2019-02-27T21:12:31.041Z,52.79
2019-02-27T21:16:35.984Z,52.98
2019-02-27T21:20:39.405Z,52.98
2019-02-27T21:24:44.542Z,53.18
2019-02-27T21:28:57.888Z,53.04
2019-02-27T21:32:53.105Z,53.14
2019-02-27T21:36:56.510Z,52.82
2019-02-27T21:40:59.919Z,52.33
2019-02-27T21:45:04.603Z,50.72
2019-02-27T21:49:08.275Z,49.88
2019-02-27T21:53:11.682Z,49.85
2019-02-27T21:57:15.100Z,49.85
2019-02-27T22:01:19.246Z,49.59
2019-02-27T22:05:23.667Z,49.44
2019-02-27T22:09:27.068Z,49.02
2019-02-27T22:13:32.317Z,48.86
2019-02-27T22:17:36.667Z,48.63
2019-02-27T22:21:41.076Z,48.55
2019-02-27T22:25:44.483Z,48.46
2019-02-27T22:29:47.897Z,48.17
2019-02-27T22:33:53.106Z,48.13
2019-02-27T22:37:56.454Z,48.24
2019-02-27T22:41:59.864Z,48.52
2019-02-27T22:46:03.476Z,48.25
2019-02-27T22:50:09.879Z,48.59
2019-02-27T22:54:13.284Z,48.65
2019-02-27T22:58:16.900Z,48.88
2019-02-27T23:02:21.592Z,48.96
2019-02-27T23:06:25.748Z,48.95
2019-02-27T23:10:30.929Z,49.14
2019-02-27T23:14:34.305Z,49.23
2019-02-27T23:18:40.337Z,49.18
2019-02-27T23:22:42.860Z,49.46
2019-02-27T23:26:46.268Z,49.54
2019-02-27T23:30:49.677Z,49.99
2019-02-27T23:34:53.085Z,50.36
2019-02-27T23:38:56.492Z,50.72
2019-02-27T23:43:03.383Z,50.70
2019-02-27T23:47:05.053Z,51.24
2019-02-27T23:51:08.768Z,51.26
2019-02-27T23:55:12.178Z,51.40
2019-02-27T23:59:15.592Z,51.34
